NCAR-RAP Real-Time Weather Data

Output produced by METARs form (10 April 2020  07:21 UTC)
found at http://weather.rap.ucar.edu/surface/
 
KMCW 100653Z AUTO 31013KT 10SM CLR M02/M06 A3013 RMK AO2 SLP210 T10221056
KMCW 100553Z AUTO 31014KT 10SM CLR M02/M06 A3012 RMK AO2 SLP208 T10221056 10022 21022 400501022 53005
KMCW 100453Z AUTO 30013KT 10SM CLR M02/M06 A3012 RMK AO2 SLP206 T10171061
KMCW 100353Z AUTO 30012KT 10SM CLR M02/M07 A3011 RMK AO2 SLP203 T10171067
KMCW 100253Z AUTO 31013KT 10SM CLR M01/M07 A3011 RMK AO2 SLP203 T10111072 51021
KMCW 100153Z AUTO 31017G24KT 10SM CLR 00/M07 A3009 RMK AO2 SLP195 T00001072
KMCW 100053Z AUTO 33018G26KT 10SM SCT060 01/M08 A3007 RMK AO2 PK WND 33028/2356 SLP189 T00061078
KMCW 092353Z AUTO 33022G31KT 10SM FEW065 02/M08 A3004 RMK AO2 PK WND 33039/2319 SLP181 60000 T00171083 10050 20006 53018
KMCW 092253Z AUTO 32020G28KT 9SM SCT038 BKN065 02/M06 A3002 RMK AO2 PK WND 33040/2211 SNB23E52 SLP172 P0000 T00171056
KMCW 092153Z AUTO 32023G34KT 10SM FEW050 FEW060 SCT080 04/M08 A3000 RMK AO2 PK WND 31042/2056 SNB04E13 SLP164 P0000 T00391078
KMCW 092053Z AUTO 32024G32KT 10SM FEW023 FEW060 SCT070 04/M07 A2999 RMK AO2 PK WND 32049/2029 SNB06E15B32E41 SLP161 P0000 60000 T00391067 51012
KMCW 091953Z AUTO 33027G41KT 10SM SCT055 04/M08 A2998 RMK AO2 PK WND 33048/1936 SNB01E11 SLP159 P0000 T00391078
KMCW 091853Z AUTO 32025G38KT 10SM FEW045 BKN060 OVC075 02/M08 A2997 RMK AO2 PK WND 32048/1824 SLP156 T00221078
KMCW 091753Z AUTO 31025G35KT 10SM SCT047 SCT065 BKN085 04/M07 A2995 RMK AO2 PK WND 33047/1721 SNB24E35 SLP147 P0000 60000 T00441067 10044 21011 53010
KMCW 091653Z AUTO 30029G44KT 10SM FEW029 SCT041 BKN060 03/M06 A2992 RMK AO2 PK WND 31050/1612 SNB14E27 SLP139 P0000 T00281061
KMCW 091631Z AUTO 29018G30KT 9SM SCT034 BKN065 OVC080 02/M04 A2992 RMK AO2 PK WND 31050/1612 SNB14E27 P0000 T00171044
KMCW 091624Z AUTO 30023G34KT 2SM -SN BKN038 BKN060 OVC070 01/M04 A2992 RMK AO2 PK WND 31050/1612 SNB14 P0000 T00111039
KMCW 091616Z AUTO 29026G50KT 3/4SM -SN SCT030 BKN044 OVC060 01/M04 A2993 RMK AO2 PK WND 31050/1612 SNB14 P0000 T00061039
KMCW 091553Z AUTO 31026G35KT 10SM SCT031 BKN042 BKN050 04/M04 A2991 RMK AO2 PK WND 31035/1553 SNE06B26E44 SLP134 P0000 T00391039
KMCW 091546Z AUTO 31016G24KT 9SM SCT028 BKN035 BKN048 03/M03 A2992 RMK AO2 PK WND 31033/1525 SNE06B26E44 P0000 T00281028
KMCW 091539Z AUTO 31015G29KT 2SM -SN SCT028 BKN035 OVC047 01/M03 A2992 RMK AO2 PK WND 31033/1525 SNE06B26 P0000 T00111028
KMCW 091536Z AUTO 31015G33KT 1 1/4SM -SN BKN025 BKN035 OVC047 01/M03 A2992 RMK AO2 PK WND 31033/1525 SNE06B26 P0000 T00061028
KMCW 091528Z AUTO 31025G33KT 1 3/4SM -SN BKN033 OVC045 01/M03 A2993 RMK AO2 PK WND 31033/1525 SNE06B26 P0000 T00111033
KMCW 091508Z AUTO 29016G26KT 9SM FEW027 BKN037 OVC055 02/M03 A2992 RMK AO2 PK WND 30026/1456 SNE06 P0000 T00171028
KMCW 091459Z AUTO 30019G29KT 2SM -SN BKN031 BKN041 OVC055 01/M02 A2992 RMK AO2 PK WND 30026/1456 VIS 3/4V5 P0000 T00111022
KMCW 091453Z AUTO 31019G29KT 3SM -SN BKN029 BKN042 OVC070 02/M02 A2992 RMK AO2 PK WND 30029/1438 SNB49 SLP136 P0000 60000 T00221022 53003
KMCW 091353Z AUTO 28011KT 10SM SCT070 BKN090 02/M02 A2990 RMK AO2 SLP129 T00221022
KMCW 091253Z AUTO 28010KT 10SM CLR 01/M03 A2991 RMK AO2 SLP131 T00061033
KMCW 091153Z AUTO 27009KT 10SM CLR M01/M04 A2991 RMK AO2 SLP132 70023 T10111044 10022 21022 55001
KMCW 091053Z AUTO 27008KT 10SM CLR M01/M04 A2991 RMK AO2 SLP130 T10111039
KMCW 090953Z AUTO 27010KT 10SM SCT070 00/M03 A2992 RMK AO2 SLP133 T00001033
KMCW 090853Z AUTO 28009KT 10SM CLR M01/M04 A2991 RMK AO2 SLP133 T10111039 58009